ANZ111 NZAA-YSSY
Flight info
| Callsign | ANZ111 |
|---|---|
| Flight time | 3h 8m |
| Altitude | 36000 |
| Route | VELMO DCT 38S163E DCT PLUGA DCT RIKNI N774 MARLN |
| Aircraft | A21N/M-SDE2E3FGHIRWXY/LB1 |
Departure
| Time | 2026-05-04 06:48 |
|---|---|
| Airport | Auckland International Airport (NZAA) |
Arrival
| Time | 2026-05-04 09:57 |
|---|---|
| Airport | Sydney Kingsford Smith International Airport (YSSY) |
| Time | Latitude | Longitude | Altitude | Speed | Heading |
|---|---|---|---|---|---|
| 2026-05-04 06:18 | -37.00502 | 174.77894 | 29 ft | 0 kts | 341° |
| 2026-05-04 06:33 | -37.00542 | 174.77911 | 28 ft | 3 kts | 340° |
| 2026-05-04 06:34 | -37.00565 | 174.77926 | 29 ft | 4 kts | 319° |
| 2026-05-04 06:34 | -37.00583 | 174.77951 | 29 ft | 4 kts | 302° |
| 2026-05-04 06:34 | -37.00596 | 174.77979 | 29 ft | 3 kts | 298° |
| 2026-05-04 06:34 | -37.00593 | 174.77964 | 29 ft | 4 kts | 278° |
| 2026-05-04 06:35 | -37.00597 | 174.77931 | 29 ft | 4 kts | 257° |
| 2026-05-04 06:36 | -37.00626 | 174.77821 | 29 ft | 0 kts | 251° |
| 2026-05-04 06:41 | -37.00627 | 174.77820 | 29 ft | 0 kts | 248° |
| 2026-05-04 06:41 | -37.00636 | 174.77822 | 29 ft | 2 kts | 142° |
| 2026-05-04 06:41 | -37.00626 | 174.77851 | 29 ft | 5 kts | 62° |
| 2026-05-04 06:42 | -37.00593 | 174.77931 | 29 ft | 16 kts | 64° |
| 2026-05-04 06:42 | -37.00624 | 174.78017 | 29 ft | 12 kts | 144° |
| 2026-05-04 06:42 | -37.00701 | 174.78033 | 29 ft | 12 kts | 200° |
| 2026-05-04 06:44 | -37.01170 | 174.78056 | 29 ft | 21 kts | 250° |
| 2026-05-04 06:44 | -37.01219 | 174.77883 | 29 ft | 22 kts | 250° |
| 2026-05-04 06:44 | -37.01268 | 174.77702 | 29 ft | 22 kts | 251° |
| 2026-05-04 06:45 | -37.01319 | 174.77518 | 29 ft | 23 kts | 252° |
| 2026-05-04 06:45 | -37.01353 | 174.77392 | 29 ft | 23 kts | 251° |
| 2026-05-04 06:45 | -37.01403 | 174.77208 | 29 ft | 23 kts | 251° |
| 2026-05-04 06:45 | -37.01472 | 174.77105 | 29 ft | 5 kts | 191° |
| 2026-05-04 06:46 | -37.01482 | 174.77102 | 29 ft | 0 kts | 190° |
| 2026-05-04 06:46 | -37.01484 | 174.77102 | 29 ft | 2 kts | 190° |
| 2026-05-04 06:46 | -37.01521 | 174.77094 | 29 ft | 8 kts | 190° |
| 2026-05-04 06:46 | -37.01579 | 174.77084 | 29 ft | 11 kts | 175° |
| 2026-05-04 06:48 | -36.99760 | 174.83875 | 2073 ft | 192 kts | 74° |
| 2026-05-04 06:48 | -36.99366 | 174.85492 | 2697 ft | 199 kts | 72° |
| 2026-05-04 06:49 | -36.98884 | 174.87159 | 3379 ft | 205 kts | 69° |
| 2026-05-04 06:50 | -37.05025 | 174.92043 | 7775 ft | 250 kts | 237° |
| 2026-05-04 06:51 | -37.05775 | 174.90025 | 8223 ft | 266 kts | 250° |
| 2026-05-04 06:51 | -37.06384 | 174.87741 | 8632 ft | 285 kts | 252° |
| 2026-05-04 06:51 | -37.07006 | 174.85327 | 9254 ft | 295 kts | 252° |
| 2026-05-04 06:51 | -37.07786 | 174.82960 | 9986 ft | 300 kts | 234° |
| 2026-05-04 06:52 | -37.09227 | 174.80966 | 10235 ft | 324 kts | 229° |
| 2026-05-04 06:52 | -37.10581 | 174.78553 | 10158 ft | 356 kts | 241° |
| 2026-05-04 06:52 | -37.11668 | 174.75679 | 10557 ft | 367 kts | 247° |
| 2026-05-04 06:52 | -37.12647 | 174.72709 | 11301 ft | 366 kts | 248° |
| 2026-05-04 06:53 | -37.13613 | 174.69775 | 12031 ft | 368 kts | 244° |
| 2026-05-04 06:53 | -37.15130 | 174.67172 | 12744 ft | 371 kts | 226° |
| 2026-05-04 06:53 | -37.16970 | 174.64893 | 13428 ft | 375 kts | 228° |
| 2026-05-04 06:53 | -37.18361 | 174.62129 | 14084 ft | 378 kts | 247° |
| 2026-05-04 06:54 | -37.19357 | 174.59051 | 14726 ft | 381 kts | 249° |
| 2026-05-04 06:54 | -37.20324 | 174.55982 | 15312 ft | 385 kts | 249° |
| 2026-05-04 06:54 | -37.21356 | 174.52849 | 15893 ft | 388 kts | 248° |
| 2026-05-04 06:54 | -37.22410 | 174.49762 | 16368 ft | 391 kts | 247° |
| 2026-05-04 06:55 | -37.23512 | 174.46605 | 16518 ft | 392 kts | 247° |
| 2026-05-04 06:55 | -37.24621 | 174.43464 | 16533 ft | 393 kts | 246° |
| 2026-05-04 06:55 | -37.25733 | 174.40334 | 16755 ft | 397 kts | 246° |
| 2026-05-04 06:55 | -37.26867 | 174.37149 | 17413 ft | 398 kts | 246° |
| 2026-05-04 06:56 | -37.27993 | 174.33988 | 18037 ft | 401 kts | 246° |
| 2026-05-04 06:57 | -37.35734 | 174.10893 | 21747 ft | 420 kts | 250° |
| 2026-05-04 06:58 | -37.36787 | 174.07421 | 22235 ft | 423 kts | 250° |
| 2026-05-04 06:58 | -37.37825 | 174.04001 | 22715 ft | 426 kts | 250° |
| 2026-05-04 06:58 | -37.38888 | 174.00498 | 23207 ft | 428 kts | 250° |
| 2026-05-04 06:58 | -37.39955 | 173.96978 | 23684 ft | 431 kts | 250° |
| 2026-05-04 06:59 | -37.41027 | 173.93440 | 24165 ft | 434 kts | 250° |
| 2026-05-04 06:59 | -37.42089 | 173.89933 | 24545 ft | 437 kts | 250° |
| 2026-05-04 06:59 | -37.43155 | 173.86408 | 24951 ft | 438 kts | 250° |
| 2026-05-04 06:59 | -37.44246 | 173.82795 | 25349 ft | 440 kts | 250° |
| 2026-05-04 07:01 | -37.51889 | 173.57353 | 27768 ft | 450 kts | 250° |
| 2026-05-04 07:01 | -37.52993 | 173.53656 | 28068 ft | 451 kts | 250° |
| 2026-05-04 07:02 | -37.54104 | 173.49936 | 28318 ft | 454 kts | 250° |
| 2026-05-04 07:02 | -37.55220 | 173.46190 | 28443 ft | 460 kts | 250° |
| 2026-05-04 07:02 | -37.56327 | 173.42470 | 28734 ft | 461 kts | 250° |
| 2026-05-04 07:02 | -37.57458 | 173.38664 | 29074 ft | 461 kts | 250° |
| 2026-05-04 07:03 | -37.58565 | 173.34936 | 29531 ft | 459 kts | 250° |
| 2026-05-04 07:03 | -37.59682 | 173.31167 | 29984 ft | 457 kts | 250° |
| 2026-05-04 07:03 | -37.60791 | 173.27423 | 30441 ft | 455 kts | 250° |
| 2026-05-04 07:03 | -37.61880 | 173.23737 | 30832 ft | 454 kts | 250° |
| 2026-05-04 07:04 | -37.62981 | 173.20007 | 31196 ft | 452 kts | 250° |
| 2026-05-04 07:04 | -37.64084 | 173.16266 | 31550 ft | 451 kts | 250° |
| 2026-05-04 07:04 | -37.65175 | 173.12561 | 31851 ft | 451 kts | 250° |
| 2026-05-04 07:04 | -37.66256 | 173.08882 | 32146 ft | 451 kts | 250° |
| 2026-05-04 07:05 | -37.67346 | 173.05171 | 32469 ft | 450 kts | 250° |
| 2026-05-04 07:05 | -37.68411 | 173.01538 | 32793 ft | 448 kts | 250° |
| 2026-05-04 07:05 | -37.69493 | 172.97842 | 33106 ft | 447 kts | 250° |
| 2026-05-04 07:05 | -37.70576 | 172.94137 | 33423 ft | 446 kts | 250° |
| 2026-05-04 07:06 | -37.72710 | 172.86825 | 33987 ft | 445 kts | 250° |
| 2026-05-04 07:06 | -37.73771 | 172.83180 | 34272 ft | 444 kts | 250° |
| 2026-05-04 07:06 | -37.74839 | 172.79507 | 34465 ft | 445 kts | 249° |
| 2026-05-04 07:07 | -37.75899 | 172.75857 | 34647 ft | 445 kts | 250° |
| 2026-05-04 07:08 | -37.83284 | 172.50293 | 36098 ft | 439 kts | 250° |
| 2026-05-04 07:09 | -37.84326 | 172.46665 | 36288 ft | 439 kts | 250° |
| 2026-05-04 07:09 | -37.85360 | 172.43060 | 36437 ft | 438 kts | 250° |
| 2026-05-04 07:09 | -37.86401 | 172.39427 | 36543 ft | 440 kts | 250° |
| 2026-05-04 07:10 | -37.88477 | 172.32169 | 36548 ft | 440 kts | 250° |
| 2026-05-04 07:12 | -37.96765 | 172.02986 | 36545 ft | 442 kts | 250° |
| 2026-05-04 07:12 | -37.98835 | 171.95647 | 36540 ft | 442 kts | 250° |
| 2026-05-04 07:13 | -38.00890 | 171.88341 | 36554 ft | 442 kts | 249° |
| 2026-05-04 07:13 | -38.02945 | 171.81013 | 36546 ft | 443 kts | 249° |
| 2026-05-04 07:14 | -38.08082 | 171.62612 | 36545 ft | 442 kts | 250° |
| 2026-05-04 07:15 | -38.10127 | 171.55248 | 36553 ft | 442 kts | 250° |
| 2026-05-04 07:15 | -38.12171 | 171.47870 | 36540 ft | 442 kts | 250° |
| 2026-05-04 07:16 | -38.14206 | 171.40502 | 36546 ft | 442 kts | 250° |
| 2026-05-04 07:16 | -38.16224 | 171.33177 | 36545 ft | 442 kts | 250° |
| 2026-05-04 07:17 | -38.18250 | 171.25802 | 36545 ft | 441 kts | 250° |
| 2026-05-04 07:17 | -38.20271 | 171.18422 | 36544 ft | 441 kts | 250° |
| 2026-05-04 07:18 | -38.22280 | 171.11067 | 36542 ft | 440 kts | 250° |
| 2026-05-04 07:18 | -38.24288 | 171.03692 | 36538 ft | 440 kts | 250° |
| 2026-05-04 07:19 | -38.26276 | 170.96300 | 36541 ft | 441 kts | 252° |
| 2026-05-04 07:19 | -38.27197 | 170.88638 | 36536 ft | 442 kts | 266° |
| 2026-05-04 07:20 | -38.27268 | 170.80828 | 36535 ft | 442 kts | 269° |
| 2026-05-04 07:20 | -38.27191 | 170.73001 | 36539 ft | 442 kts | 269° |
| 2026-05-04 07:22 | -38.27028 | 170.41734 | 36535 ft | 442 kts | 269° |
| 2026-05-04 07:23 | -38.26989 | 170.33972 | 36538 ft | 441 kts | 269° |
| 2026-05-04 07:23 | -38.26943 | 170.26132 | 36532 ft | 442 kts | 269° |
| 2026-05-04 07:24 | -38.26892 | 170.18329 | 36533 ft | 442 kts | 269° |
| 2026-05-04 07:24 | -38.26835 | 170.10521 | 36529 ft | 441 kts | 269° |
| 2026-05-04 07:26 | -38.26559 | 169.79316 | 36520 ft | 441 kts | 269° |
| 2026-05-04 07:27 | -38.26477 | 169.71507 | 36524 ft | 441 kts | 269° |
| 2026-05-04 07:27 | -38.26390 | 169.63731 | 36523 ft | 441 kts | 269° |
| 2026-05-04 07:28 | -38.26298 | 169.55899 | 36520 ft | 441 kts | 269° |
| 2026-05-04 07:28 | -38.26200 | 169.48128 | 36520 ft | 442 kts | 269° |
| 2026-05-04 07:29 | -38.26098 | 169.40328 | 36515 ft | 441 kts | 269° |
| 2026-05-04 07:29 | -38.25989 | 169.32491 | 36518 ft | 441 kts | 269° |
| 2026-05-04 07:30 | -38.25876 | 169.24701 | 36521 ft | 441 kts | 269° |
| 2026-05-04 07:30 | -38.25779 | 169.18213 | 36523 ft | 441 kts | 269° |
| 2026-05-04 07:31 | -38.25656 | 169.10403 | 36513 ft | 441 kts | 269° |
| 2026-05-04 07:33 | -38.25115 | 168.79206 | 36515 ft | 441 kts | 269° |
| 2026-05-04 07:33 | -38.24966 | 168.71388 | 36515 ft | 441 kts | 269° |
| 2026-05-04 07:34 | -38.24813 | 168.63628 | 36511 ft | 440 kts | 269° |
| 2026-05-04 07:34 | -38.24654 | 168.55823 | 36511 ft | 439 kts | 269° |
| 2026-05-04 07:35 | -38.24491 | 168.48049 | 36508 ft | 439 kts | 269° |
| 2026-05-04 07:35 | -38.24324 | 168.40309 | 36509 ft | 440 kts | 269° |
| 2026-05-04 07:36 | -38.24150 | 168.32518 | 36503 ft | 439 kts | 269° |
| 2026-05-04 07:38 | -38.23409 | 168.01608 | 36502 ft | 438 kts | 270° |
| 2026-05-04 07:38 | -38.23211 | 167.93874 | 36492 ft | 437 kts | 270° |
| 2026-05-04 07:39 | -38.23008 | 167.86157 | 36492 ft | 435 kts | 270° |
| 2026-05-04 07:39 | -38.22800 | 167.78444 | 36489 ft | 435 kts | 270° |
| 2026-05-04 07:40 | -38.22588 | 167.70762 | 36493 ft | 435 kts | 270° |
| 2026-05-04 07:40 | -38.22372 | 167.63062 | 36489 ft | 435 kts | 270° |
| 2026-05-04 07:41 | -38.22149 | 167.55365 | 36484 ft | 435 kts | 270° |
| 2026-05-04 07:41 | -38.21924 | 167.47743 | 36488 ft | 434 kts | 270° |
| 2026-05-04 07:42 | -38.21692 | 167.40059 | 36486 ft | 435 kts | 270° |
| 2026-05-04 07:42 | -38.21455 | 167.32382 | 36486 ft | 434 kts | 270° |
| 2026-05-04 07:43 | -38.21214 | 167.24705 | 36478 ft | 435 kts | 270° |
| 2026-05-04 07:43 | -38.20966 | 167.17007 | 36479 ft | 433 kts | 270° |
| 2026-05-04 07:44 | -38.20716 | 167.09402 | 36484 ft | 432 kts | 270° |
| 2026-05-04 07:44 | -38.20461 | 167.01757 | 36474 ft | 433 kts | 271° |
| 2026-05-04 07:45 | -38.20200 | 166.94114 | 36481 ft | 433 kts | 270° |
| 2026-05-04 07:45 | -38.19936 | 166.86502 | 36475 ft | 432 kts | 270° |
| 2026-05-04 07:46 | -38.19667 | 166.78858 | 36479 ft | 432 kts | 270° |
| 2026-05-04 07:46 | -38.19392 | 166.71259 | 36474 ft | 430 kts | 271° |
| 2026-05-04 07:47 | -38.19112 | 166.63651 | 36468 ft | 430 kts | 270° |
| 2026-05-04 07:49 | -38.17951 | 166.33347 | 36458 ft | 429 kts | 271° |
| 2026-05-04 07:49 | -38.17649 | 166.25790 | 36457 ft | 427 kts | 271° |
| 2026-05-04 07:50 | -38.17343 | 166.18208 | 36458 ft | 430 kts | 271° |
| 2026-05-04 07:50 | -38.17032 | 166.10661 | 36459 ft | 428 kts | 271° |
| 2026-05-04 07:51 | -38.16716 | 166.03136 | 36449 ft | 425 kts | 272° |
| 2026-05-04 07:51 | -38.16396 | 165.95607 | 36453 ft | 428 kts | 272° |
| 2026-05-04 07:52 | -38.16071 | 165.88086 | 36458 ft | 427 kts | 271° |
| 2026-05-04 07:52 | -38.15742 | 165.80565 | 36456 ft | 425 kts | 272° |
| 2026-05-04 07:54 | -38.14384 | 165.50623 | 36459 ft | 426 kts | 272° |
| 2026-05-04 07:55 | -38.14031 | 165.43105 | 36444 ft | 426 kts | 272° |
| 2026-05-04 07:55 | -38.13674 | 165.35612 | 36435 ft | 424 kts | 272° |
| 2026-05-04 07:56 | -38.13314 | 165.28135 | 36436 ft | 427 kts | 273° |
| 2026-05-04 07:56 | -38.12946 | 165.20635 | 36441 ft | 426 kts | 272° |
| 2026-05-04 07:57 | -38.12576 | 165.13167 | 36433 ft | 424 kts | 273° |
| 2026-05-04 07:57 | -38.12201 | 165.05675 | 36431 ft | 425 kts | 273° |
| 2026-05-04 07:58 | -38.11820 | 164.98175 | 36438 ft | 424 kts | 273° |
| 2026-05-04 07:58 | -38.11436 | 164.90740 | 36428 ft | 421 kts | 273° |
| 2026-05-04 07:59 | -38.11049 | 164.83297 | 36430 ft | 424 kts | 273° |
| 2026-05-04 07:59 | -38.10654 | 164.75804 | 36422 ft | 424 kts | 273° |
| 2026-05-04 08:00 | -38.10258 | 164.68382 | 36427 ft | 421 kts | 274° |
| 2026-05-04 08:02 | -38.08621 | 164.38600 | 36414 ft | 422 kts | 274° |
| 2026-05-04 08:02 | -38.08200 | 164.31140 | 36420 ft | 424 kts | 275° |
| 2026-05-04 08:03 | -38.07776 | 164.23715 | 36413 ft | 422 kts | 275° |
| 2026-05-04 08:03 | -38.07346 | 164.16292 | 36414 ft | 423 kts | 274° |
| 2026-05-04 08:04 | -38.06910 | 164.08832 | 36411 ft | 425 kts | 275° |
| 2026-05-04 08:04 | -38.06470 | 164.01383 | 36414 ft | 423 kts | 275° |
| 2026-05-04 08:05 | -38.06026 | 163.93955 | 36406 ft | 422 kts | 275° |
| 2026-05-04 08:05 | -38.05577 | 163.86510 | 36403 ft | 424 kts | 275° |
| 2026-05-04 08:06 | -38.05121 | 163.79044 | 36397 ft | 424 kts | 275° |
| 2026-05-04 08:06 | -38.04664 | 163.71619 | 36398 ft | 422 kts | 275° |
| 2026-05-04 08:08 | -38.02783 | 163.41898 | 36392 ft | 423 kts | 275° |
| 2026-05-04 08:11 | -38.00579 | 163.08477 | 36373 ft | 423 kts | 275° |
| 2026-05-04 08:11 | -37.99321 | 162.97477 | 36375 ft | 420 kts | 285° |
| 2026-05-04 08:12 | -37.97693 | 162.90383 | 36368 ft | 418 kts | 287° |
| 2026-05-04 08:12 | -37.95942 | 162.83327 | 36364 ft | 421 kts | 287° |
| 2026-05-04 08:13 | -37.94169 | 162.76237 | 36371 ft | 421 kts | 287° |
| 2026-05-04 08:13 | -37.92408 | 162.69168 | 36357 ft | 421 kts | 287° |
| 2026-05-04 08:14 | -37.90658 | 162.62122 | 36364 ft | 423 kts | 287° |
| 2026-05-04 08:16 | -37.83587 | 162.33822 | 36355 ft | 422 kts | 287° |
| 2026-05-04 08:16 | -37.81812 | 162.26767 | 36354 ft | 419 kts | 287° |
| 2026-05-04 08:17 | -37.80037 | 162.19737 | 36358 ft | 419 kts | 287° |
| 2026-05-04 08:17 | -37.78261 | 162.12720 | 36352 ft | 419 kts | 287° |
| 2026-05-04 08:19 | -37.71112 | 161.84682 | 36340 ft | 421 kts | 288° |
| 2026-05-04 08:20 | -37.69611 | 161.78832 | 36340 ft | 421 kts | 288° |
| 2026-05-04 08:20 | -37.67506 | 161.70657 | 36329 ft | 419 kts | 288° |
| 2026-05-04 08:21 | -37.65994 | 161.64799 | 36321 ft | 419 kts | 288° |
| 2026-05-04 08:21 | -37.63892 | 161.56675 | 36335 ft | 419 kts | 288° |
| 2026-05-04 08:22 | -37.62382 | 161.50857 | 36325 ft | 419 kts | 288° |
| 2026-05-04 08:24 | -37.55096 | 161.22974 | 36311 ft | 419 kts | 288° |
| 2026-05-04 08:24 | -37.53258 | 161.15984 | 36310 ft | 419 kts | 288° |
| 2026-05-04 08:25 | -37.51418 | 161.09006 | 36308 ft | 419 kts | 288° |
| 2026-05-04 08:25 | -37.49584 | 161.02076 | 36309 ft | 419 kts | 288° |
| 2026-05-04 08:27 | -37.42200 | 160.74348 | 36293 ft | 418 kts | 289° |
| 2026-05-04 08:28 | -37.40339 | 160.67408 | 36297 ft | 418 kts | 289° |
| 2026-05-04 08:28 | -37.38472 | 160.60462 | 36291 ft | 420 kts | 289° |
| 2026-05-04 08:29 | -37.36600 | 160.53512 | 36296 ft | 419 kts | 289° |
| 2026-05-04 08:31 | -37.29099 | 160.25869 | 36284 ft | 418 kts | 289° |
| 2026-05-04 08:33 | -37.21528 | 159.98255 | 36275 ft | 419 kts | 289° |
| 2026-05-04 08:35 | -37.13875 | 159.70637 | 36263 ft | 420 kts | 289° |
| 2026-05-04 08:35 | -37.11952 | 159.63739 | 36258 ft | 420 kts | 289° |
| 2026-05-04 08:37 | -37.05202 | 159.39681 | 36252 ft | 415 kts | 289° |
| 2026-05-04 08:38 | -37.03284 | 159.32883 | 36249 ft | 411 kts | 289° |
| 2026-05-04 08:38 | -37.01391 | 159.26187 | 36250 ft | 411 kts | 289° |
| 2026-05-04 08:40 | -36.93761 | 158.99372 | 36242 ft | 408 kts | 289° |
| 2026-05-04 08:41 | -36.91845 | 158.92682 | 36240 ft | 408 kts | 289° |
| 2026-05-04 08:41 | -36.89942 | 158.86050 | 36238 ft | 408 kts | 289° |
| 2026-05-04 08:42 | -36.88016 | 158.79360 | 36229 ft | 407 kts | 289° |
| 2026-05-04 08:42 | -36.86106 | 158.72738 | 36231 ft | 407 kts | 289° |
| 2026-05-04 08:43 | -36.84182 | 158.66085 | 36226 ft | 407 kts | 289° |
| 2026-05-04 08:43 | -36.82259 | 158.59447 | 36218 ft | 407 kts | 289° |
| 2026-05-04 08:44 | -36.80340 | 158.52843 | 36220 ft | 407 kts | 289° |
| 2026-05-04 08:46 | -36.72487 | 158.25974 | 36217 ft | 425 kts | 289° |
| 2026-05-04 08:46 | -36.70463 | 158.19095 | 36213 ft | 425 kts | 289° |
| 2026-05-04 08:47 | -36.68493 | 158.12418 | 36215 ft | 423 kts | 289° |
| 2026-05-04 08:47 | -36.66454 | 158.05518 | 36205 ft | 423 kts | 289° |
| 2026-05-04 08:48 | -36.64429 | 157.98682 | 36207 ft | 423 kts | 289° |
| 2026-05-04 08:48 | -36.62384 | 157.91797 | 36205 ft | 423 kts | 289° |
| 2026-05-04 08:49 | -36.60341 | 157.84935 | 36206 ft | 422 kts | 289° |
| 2026-05-04 08:50 | -36.53185 | 157.61034 | 36199 ft | 421 kts | 289° |
| 2026-05-04 08:51 | -36.51130 | 157.54206 | 36195 ft | 421 kts | 289° |
| 2026-05-04 08:51 | -36.49075 | 157.47394 | 36191 ft | 421 kts | 289° |
| 2026-05-04 08:52 | -36.47025 | 157.40620 | 36186 ft | 420 kts | 289° |
| 2026-05-04 08:52 | -36.44954 | 157.33789 | 36188 ft | 420 kts | 289° |
| 2026-05-04 08:54 | -36.36697 | 157.06720 | 36175 ft | 417 kts | 289° |
| 2026-05-04 08:55 | -36.34639 | 157.00012 | 36176 ft | 417 kts | 289° |
| 2026-05-04 08:55 | -36.32573 | 156.93296 | 36176 ft | 417 kts | 289° |
| 2026-05-04 09:01 | -36.10795 | 156.23428 | 36148 ft | 412 kts | 290° |
| 2026-05-04 09:01 | -36.08713 | 156.16837 | 36144 ft | 410 kts | 290° |
| 2026-05-04 09:02 | -36.06634 | 156.10267 | 36139 ft | 410 kts | 290° |
| 2026-05-04 09:02 | -36.04554 | 156.03711 | 36139 ft | 410 kts | 290° |
| 2026-05-04 09:03 | -36.02473 | 155.97165 | 36129 ft | 410 kts | 290° |
| 2026-05-04 09:03 | -36.00385 | 155.90610 | 36135 ft | 410 kts | 291° |
| 2026-05-04 09:04 | -35.98293 | 155.84059 | 36130 ft | 410 kts | 291° |
| 2026-05-04 09:04 | -35.96188 | 155.77486 | 36129 ft | 410 kts | 291° |
| 2026-05-04 09:05 | -35.94086 | 155.70935 | 36126 ft | 410 kts | 291° |
| 2026-05-04 09:05 | -35.91982 | 155.64392 | 36128 ft | 411 kts | 291° |
| 2026-05-04 09:06 | -35.89883 | 155.57877 | 36124 ft | 411 kts | 291° |
| 2026-05-04 09:08 | -35.81404 | 155.31709 | 36110 ft | 411 kts | 291° |
| 2026-05-04 09:08 | -35.79277 | 155.25182 | 36111 ft | 411 kts | 291° |
| 2026-05-04 09:09 | -35.77136 | 155.18626 | 36106 ft | 411 kts | 291° |
| 2026-05-04 09:09 | -35.75007 | 155.12119 | 36105 ft | 411 kts | 291° |
| 2026-05-04 09:10 | -35.72868 | 155.05599 | 36105 ft | 411 kts | 291° |
| 2026-05-04 09:10 | -35.70732 | 154.99100 | 36111 ft | 411 kts | 291° |
| 2026-05-04 09:11 | -35.68583 | 154.92578 | 36098 ft | 409 kts | 291° |
| 2026-05-04 09:11 | -35.66444 | 154.86097 | 36099 ft | 409 kts | 291° |
| 2026-05-04 09:12 | -35.64317 | 154.79667 | 36101 ft | 409 kts | 291° |
| 2026-05-04 09:14 | -35.52058 | 154.56350 | 36088 ft | 412 kts | 308° |
| 2026-05-04 09:14 | -35.48296 | 154.51040 | 36087 ft | 411 kts | 308° |
| 2026-05-04 09:15 | -35.44555 | 154.45729 | 36086 ft | 411 kts | 308° |
| 2026-05-04 09:15 | -35.40823 | 154.40414 | 36085 ft | 411 kts | 308° |
| 2026-05-04 09:17 | -35.23997 | 154.16532 | 36080 ft | 411 kts | 308° |
| 2026-05-04 09:18 | -35.20256 | 154.11247 | 36080 ft | 411 kts | 308° |
| 2026-05-04 09:18 | -35.16530 | 154.05989 | 36078 ft | 411 kts | 308° |
| 2026-05-04 09:19 | -35.13401 | 154.01581 | 36078 ft | 409 kts | 307° |
| 2026-05-04 09:19 | -35.09694 | 153.96365 | 36072 ft | 409 kts | 307° |
| 2026-05-04 09:20 | -35.05342 | 153.90254 | 36076 ft | 409 kts | 308° |
| 2026-05-04 09:20 | -35.02221 | 153.85876 | 36070 ft | 409 kts | 308° |
| 2026-05-04 09:21 | -34.98504 | 153.80670 | 36057 ft | 409 kts | 307° |
| 2026-05-04 09:21 | -34.94788 | 153.75478 | 36074 ft | 407 kts | 307° |
| 2026-05-04 09:22 | -34.91069 | 153.70285 | 36064 ft | 405 kts | 307° |
| 2026-05-04 09:22 | -34.87357 | 153.65109 | 36068 ft | 404 kts | 307° |
| 2026-05-04 09:23 | -34.83653 | 153.59950 | 36062 ft | 404 kts | 307° |
| 2026-05-04 09:23 | -34.79943 | 153.54792 | 36062 ft | 404 kts | 307° |
| 2026-05-04 09:25 | -34.65152 | 153.34307 | 36059 ft | 402 kts | 307° |
| 2026-05-04 09:26 | -34.61470 | 153.29231 | 36054 ft | 397 kts | 307° |
| 2026-05-04 09:26 | -34.57832 | 153.24220 | 36058 ft | 395 kts | 307° |
| 2026-05-04 09:27 | -34.54223 | 153.19251 | 36059 ft | 395 kts | 307° |
| 2026-05-04 09:27 | -34.50586 | 153.14252 | 36060 ft | 395 kts | 307° |
| 2026-05-04 09:28 | -34.46950 | 153.09262 | 36052 ft | 393 kts | 307° |
| 2026-05-04 09:28 | -34.43365 | 153.04353 | 35464 ft | 388 kts | 307° |
| 2026-05-04 09:29 | -34.41584 | 153.01916 | 34838 ft | 386 kts | 308° |
| 2026-05-04 09:29 | -34.39803 | 152.99482 | 34311 ft | 382 kts | 308° |
| 2026-05-04 09:29 | -34.38063 | 152.97105 | 33758 ft | 378 kts | 308° |
| 2026-05-04 09:29 | -34.36341 | 152.94754 | 33230 ft | 373 kts | 308° |
| 2026-05-04 09:30 | -34.34629 | 152.92417 | 32708 ft | 369 kts | 309° |
| 2026-05-04 09:30 | -34.32922 | 152.90088 | 32195 ft | 365 kts | 309° |
| 2026-05-04 09:30 | -34.31244 | 152.87799 | 31656 ft | 362 kts | 309° |
| 2026-05-04 09:30 | -34.29567 | 152.85513 | 31135 ft | 362 kts | 309° |
| 2026-05-04 09:31 | -34.27901 | 152.83243 | 30577 ft | 363 kts | 310° |
| 2026-05-04 09:31 | -34.26239 | 152.80979 | 30105 ft | 360 kts | 310° |
| 2026-05-04 09:31 | -34.24588 | 152.78735 | 29671 ft | 353 kts | 310° |
| 2026-05-04 09:31 | -34.22955 | 152.76519 | 29277 ft | 352 kts | 310° |
| 2026-05-04 09:32 | -34.21316 | 152.74293 | 28867 ft | 353 kts | 310° |
| 2026-05-04 09:32 | -34.19702 | 152.72104 | 28465 ft | 353 kts | 310° |
| 2026-05-04 09:34 | -34.08781 | 152.56344 | 25460 ft | 348 kts | 295° |
| 2026-05-04 09:34 | -34.08046 | 152.53551 | 24976 ft | 350 kts | 283° |
| 2026-05-04 09:34 | -34.07672 | 152.50686 | 24530 ft | 350 kts | 281° |
| 2026-05-04 09:34 | -34.07385 | 152.47786 | 24026 ft | 347 kts | 280° |
| 2026-05-04 09:35 | -34.07115 | 152.44895 | 23537 ft | 345 kts | 279° |
| 2026-05-04 09:35 | -34.06849 | 152.42032 | 23005 ft | 342 kts | 279° |
| 2026-05-04 09:35 | -34.06585 | 152.39202 | 22529 ft | 340 kts | 280° |
| 2026-05-04 09:35 | -34.06318 | 152.36364 | 22047 ft | 339 kts | 280° |
| 2026-05-04 09:37 | -34.04463 | 152.16936 | 18619 ft | 328 kts | 280° |
| 2026-05-04 09:37 | -34.04200 | 152.14214 | 18084 ft | 327 kts | 280° |
| 2026-05-04 09:38 | -34.03936 | 152.11476 | 17559 ft | 325 kts | 280° |
| 2026-05-04 09:38 | -34.03676 | 152.08790 | 17087 ft | 322 kts | 280° |
| 2026-05-04 09:38 | -34.03415 | 152.06135 | 16648 ft | 320 kts | 280° |
| 2026-05-04 09:38 | -34.03148 | 152.03450 | 16209 ft | 318 kts | 280° |
| 2026-05-04 09:39 | -34.02885 | 152.00827 | 15776 ft | 318 kts | 280° |
| 2026-05-04 09:39 | -34.02609 | 151.98108 | 15526 ft | 332 kts | 280° |
| 2026-05-04 09:39 | -34.02330 | 151.95352 | 15284 ft | 336 kts | 280° |
| 2026-05-04 09:39 | -34.02051 | 151.92576 | 15058 ft | 336 kts | 280° |
| 2026-05-04 09:40 | -34.01768 | 151.89769 | 14808 ft | 334 kts | 280° |
| 2026-05-04 09:40 | -34.01488 | 151.86990 | 14577 ft | 332 kts | 280° |
| 2026-05-04 09:40 | -34.01210 | 151.84253 | 14338 ft | 331 kts | 280° |
| 2026-05-04 09:40 | -34.00929 | 151.81486 | 14104 ft | 330 kts | 280° |
| 2026-05-04 09:41 | -34.00648 | 151.78737 | 13871 ft | 329 kts | 280° |
| 2026-05-04 09:42 | -33.98725 | 151.59837 | 12091 ft | 321 kts | 281° |
| 2026-05-04 09:43 | -33.98452 | 151.57170 | 11843 ft | 320 kts | 281° |
| 2026-05-04 09:43 | -33.98181 | 151.54547 | 11610 ft | 314 kts | 281° |
| 2026-05-04 09:43 | -33.97919 | 151.52026 | 11330 ft | 292 kts | 281° |
| 2026-05-04 09:43 | -33.97671 | 151.49651 | 10849 ft | 279 kts | 281° |
| 2026-05-04 09:44 | -33.97429 | 151.47393 | 10160 ft | 275 kts | 281° |
| 2026-05-04 09:44 | -33.97181 | 151.45092 | 9396 ft | 273 kts | 281° |
| 2026-05-04 09:44 | -33.96940 | 151.42825 | 8655 ft | 270 kts | 280° |
| 2026-05-04 09:46 | -34.06832 | 151.35184 | 5996 ft | 302 kts | 171° |
| 2026-05-04 09:46 | -34.08897 | 151.35733 | 5990 ft | 303 kts | 169° |
| 2026-05-04 09:46 | -34.10921 | 151.36293 | 5669 ft | 299 kts | 169° |
| 2026-05-04 09:47 | -34.12962 | 151.36852 | 4874 ft | 302 kts | 169° |
| 2026-05-04 09:47 | -34.15015 | 151.37403 | 4349 ft | 301 kts | 169° |
| 2026-05-04 09:49 | -34.28518 | 151.38306 | 2645 ft | 270 kts | 234° |
| 2026-05-04 09:49 | -34.29404 | 151.36397 | 2182 ft | 258 kts | 260° |
| 2026-05-04 09:49 | -34.29444 | 151.34297 | 2010 ft | 245 kts | 291° |
| 2026-05-04 09:51 | -34.22141 | 151.26276 | 1992 ft | 238 kts | 334° |
| 2026-05-04 09:51 | -34.20609 | 151.25530 | 1990 ft | 237 kts | 341° |
| 2026-05-04 09:51 | -34.19004 | 151.25043 | 1991 ft | 237 kts | 349° |
| 2026-05-04 09:51 | -34.17392 | 151.24658 | 1982 ft | 231 kts | 349° |
| 2026-05-04 09:52 | -34.15873 | 151.24277 | 1984 ft | 217 kts | 349° |
| 2026-05-04 09:52 | -34.14450 | 151.23915 | 1979 ft | 206 kts | 349° |
| 2026-05-04 09:52 | -34.13033 | 151.23550 | 1988 ft | 207 kts | 348° |
| 2026-05-04 09:52 | -34.11637 | 151.23184 | 2020 ft | 209 kts | 349° |
| 2026-05-04 09:53 | -34.10167 | 151.22798 | 1999 ft | 210 kts | 348° |
| 2026-05-04 09:53 | -34.08840 | 151.22448 | 1967 ft | 183 kts | 349° |
| 2026-05-04 09:53 | -34.07685 | 151.22143 | 1979 ft | 153 kts | 348° |
| 2026-05-04 09:53 | -34.06709 | 151.21888 | 1963 ft | 140 kts | 349° |
| 2026-05-04 09:54 | -34.05772 | 151.21646 | 1802 ft | 131 kts | 350° |
| 2026-05-04 09:54 | -34.04900 | 151.21419 | 1613 ft | 127 kts | 348° |
| 2026-05-04 09:54 | -34.04052 | 151.21165 | 1487 ft | 127 kts | 350° |
| 2026-05-04 09:54 | -34.03186 | 151.20954 | 1272 ft | 126 kts | 350° |
| 2026-05-04 09:55 | -34.02322 | 151.20751 | 1076 ft | 126 kts | 350° |
| 2026-05-04 09:55 | -34.01469 | 151.20519 | 835 ft | 124 kts | 351° |
| 2026-05-04 09:55 | -34.00636 | 151.20275 | 679 ft | 124 kts | 351° |
| 2026-05-04 09:55 | -33.99795 | 151.20072 | 573 ft | 124 kts | 352° |
| 2026-05-04 09:56 | -33.98946 | 151.19855 | 469 ft | 126 kts | 350° |
| 2026-05-04 09:56 | -33.98092 | 151.19634 | 247 ft | 121 kts | 352° |
| 2026-05-04 09:56 | -33.97265 | 151.19423 | 103 ft | 123 kts | 350° |
| 2026-05-04 09:56 | -33.96467 | 151.19217 | 26 ft | 106 kts | 354° |
| 2026-05-04 09:57 | -33.95897 | 151.19074 | 32 ft | 63 kts | 347° |
| 2026-05-04 09:57 | -33.95509 | 151.18972 | 27 ft | 44 kts | 345° |
| 2026-05-04 09:57 | -33.95271 | 151.18829 | 29 ft | 31 kts | 322° |
| 2026-05-04 09:57 | -33.95145 | 151.18693 | 27 ft | 16 kts | 318° |
| 2026-05-04 09:58 | -33.95105 | 151.18646 | 28 ft | 0 kts | 309° |
| 2026-05-04 09:58 | -33.95099 | 151.18635 | 28 ft | 6 kts | 298° |
| 2026-05-04 09:58 | -33.95094 | 151.18565 | 30 ft | 12 kts | 259° |
| 2026-05-04 10:00 | -33.95171 | 151.18149 | 29 ft | 0 kts | 257° |
| 2026-05-04 10:00 | -33.95172 | 151.18143 | 29 ft | 5 kts | 257° |
| 2026-05-04 10:02 | -33.94664 | 151.17830 | 26 ft | 14 kts | 348° |
| 2026-05-04 10:04 | -33.94200 | 151.17695 | 28 ft | 16 kts | 346° |
| 2026-05-04 10:04 | -33.94114 | 151.17669 | 27 ft | 4 kts | 345° |
| 2026-05-04 10:04 | -33.94085 | 151.17659 | 27 ft | 5 kts | 338° |
| 2026-05-04 10:04 | -33.94075 | 151.17624 | 25 ft | 6 kts | 255° |
| 2026-05-04 10:05 | -33.94076 | 151.17621 | 25 ft | 0 kts | 254° |
| 2026-05-04 10:13 | -33.94078 | 151.17612 | 24 ft | 0 kts | 253° |
| 2026-05-04 10:13 | -33.94078 | 151.17610 | 24 ft | 0 kts | 252° |
| 2026-05-04 10:13 | -33.94080 | 151.17603 | 24 ft | 0 kts | 252° |
| 2026-05-04 10:14 | -33.94089 | 151.17572 | 26 ft | 10 kts | 251° |
| 2026-05-04 10:14 | -33.94120 | 151.17450 | 24 ft | 18 kts | 255° |
| 2026-05-04 10:16 | -33.94048 | 151.16624 | 25 ft | 11 kts | 345° |
| 2026-05-04 10:16 | -33.94012 | 151.16613 | 25 ft | 0 kts | 345° |
| 2026-05-04 10:16 | -33.94011 | 151.16612 | 25 ft | 0 kts | 345° |